Time;durP1;ratioP1;P1;durP2;ratioP2;P2;SDS_P1;SDS_P2;PMS_P1;PMS_P2;Temp;Humidity;BMP_temperature;BMP_pressure;BME280_temperature;BME280_humidity;BME280_pressure;Samples;Min_cycle;Max_cycle;Signal;HPM_P1;HPM_P2
2021/12/05 00:24:24;;;;;;;;;0.00;0.00;;;;;5.87;71.39;99747.88;4993670;28;45417;-63
2021/12/05 00:26:59;;;;;;;;;1.75;0.00;;;;;5.84;71.38;99736.59;4976764;28;45552;-64
2021/12/05 00:29:45;;;;;;;;;0.00;0.00;;;;;5.95;72.25;99746.66;5000692;27;45901;-63
2021/12/05 00:35:25;;;;;;;;;0.00;0.00;;;;;5.99;72.17;99741.16;4993810;28;45311;-63
2021/12/05 00:40:55;;;;;;;;;0.00;0.00;;;;;6.03;71.23;99747.97;4979612;28;45441;-65
2021/12/05 00:54:22;;;;;;;;;0.00;0.00;;;;;6.11;71.36;99726.44;4999794;27;45428;-63
2021/12/05 01:15:06;;;;;;;;;1.50;1.50;;;;;6.20;70.68;99723.34;4975067;28;45544;-63
2021/12/05 01:17:49;;;;;;;;;1.75;0.00;;;;;6.17;70.69;99728.78;4991434;28;45426;-63
2021/12/05 01:20:18;;;;;;;;;1.00;0.00;;;;;6.09;70.89;99715.97;4996242;28;45722;-65
2021/12/05 01:22:51;;;;;;;;;0.00;0.00;;;;;6.04;70.42;99718.00;4992670;28;46171;-63
2021/12/05 01:25:25;;;;;;;;;0.00;0.00;;;;;6.05;70.44;99713.56;4977188;28;45449;-63
2021/12/05 01:33:04;;;;;;;;;0.00;0.00;;;;;6.05;70.61;99713.56;4992964;28;45442;-66
2021/12/05 02:41:43;;;;;;;;;0.00;0.00;;;;;5.51;71.57;99691.66;4994829;28;45327;-63
2021/12/05 02:44:23;;;;;;;;;0.50;0.00;;;;;5.49;72.62;99685.63;4977995;28;45539;-63
2021/12/05 02:47:07;;;;;;;;;0.00;0.00;;;;;5.51;72.55;99686.38;4959939;28;46528;-64
2021/12/05 02:49:35;;;;;;;;;0.00;0.00;;;;;5.45;72.37;99655.88;4982096;27;45273;-66
2021/12/05 02:52:06;;;;;;;;;0.00;0.00;;;;;5.48;71.81;99665.44;4981545;28;45457;-65
2021/12/05 02:54:38;;;;;;;;;0.00;0.00;;;;;5.43;72.51;99646.34;5004242;27;45739;-66
2021/12/05 02:57:05;;;;;;;;;0.50;0.00;;;;;5.00;71.74;99587.84;4994341;28;45472;-64
2021/12/05 03:02:13;;;;;;;;;0.00;0.00;;;;;5.40;71.87;99651.78;4994966;28;45375;-66
2021/12/05 03:04:42;;;;;;;;;0.00;0.00;;;;;5.39;72.99;99660.63;4994711;28;45492;-66
2021/12/05 03:07:10;;;;;;;;;0.00;0.00;;;;;5.35;72.85;99649.38;4977428;28;46109;-65
2021/12/05 03:09:37;;;;;;;;;0.00;0.00;;;;;5.29;72.74;99644.41;5062216;27;45422;-64
2021/12/05 03:12:05;;;;;;;;;0.00;0.00;;;;;5.29;72.28;99639.97;4976941;28;45517;-64
2021/12/05 03:14:31;;;;;;;;;0.00;0.00;;;;;5.37;72.99;99657.22;4991761;28;45461;-66
2021/12/05 03:16:57;;;;;;;;;0.00;0.00;;;;;5.35;72.27;99653.81;4995813;27;45580;-66
2021/12/05 03:19:23;;;;;;;;;0.00;0.00;;;;;5.27;72.15;99630.44;4994564;27;45894;-62
2021/12/05 03:21:51;;;;;;;;;1.00;0.00;;;;;5.35;72.37;99648.53;4977082;28;45418;-65
2021/12/05 03:24:21;;;;;;;;;0.00;0.00;;;;;5.33;71.97;99645.94;4993857;27;45629;-63
2021/12/05 03:26:50;;;;;;;;;0.00;0.00;;;;;5.29;72.72;99655.78;4989949;28;45991;-66
2021/12/05 03:29:18;;;;;;;;;0.00;0.00;;;;;5.32;72.85;99649.50;4975393;28;45398;-65
2021/12/05 03:31:47;;;;;;;;;0.00;0.00;;;;;5.29;72.93;99637.34;5001563;28;45329;-66
2021/12/05 03:34:15;;;;;;;;;1.00;0.00;;;;;5.32;72.72;99637.19;5014802;27;45513;-62
2021/12/05 03:36:46;;;;;;;;;1.00;0.00;;;;;5.27;71.86;99631.28;4994286;28;45421;-65
2021/12/05 03:39:12;;;;;;;;;0.00;0.00;;;;;5.32;72.38;99637.19;4973508;28;45375;-62
2021/12/05 03:41:39;;;;;;;;;0.00;0.00;;;;;5.28;71.60;99640.91;4994477;27;45241;-62
2021/12/05 03:44:08;;;;;;;;;0.00;0.00;;;;;5.31;72.77;99638.13;4973672;27;45521;-65
2021/12/05 03:46:34;;;;;;;;;0.00;0.00;;;;;5.36;71.56;99637.06;4974877;28;45572;-61
2021/12/05 03:49:03;;;;;;;;;0.25;0.25;;;;;5.30;72.35;99628.50;4998552;28;45446;-63
2021/12/05 03:51:33;;;;;;;;;0.00;0.00;;;;;5.38;71.55;99632.56;4994602;28;45713;-66
2021/12/05 03:53:59;;;;;;;;;0.00;0.00;;;;;5.40;71.27;99630.69;4997188;28;45392;-65
2021/12/05 03:56:25;;;;;;;;;1.00;0.00;;;;;5.38;72.24;99629.91;5013819;27;45566;-65
2021/12/05 03:58:52;;;;;;;;;0.00;0.00;;;;;5.41;72.53;99622.69;4992189;28;45914;-66
2021/12/05 04:01:19;;;;;;;;;0.00;0.00;;;;;5.39;72.19;99619.28;4989762;27;45394;-66
2021/12/05 04:03:47;;;;;;;;;1.00;0.00;;;;;5.38;71.41;99622.00;4980758;28;45505;-63
2021/12/05 04:06:16;;;;;;;;;0.00;0.00;;;;;5.35;72.32;99617.75;4994537;28;46470;-66
2021/12/05 04:08:42;;;;;;;;;0.00;0.00;;;;;5.38;71.17;99632.56;5010593;27;45480;-65
2021/12/05 04:11:13;;;;;;;;;0.00;0.00;;;;;5.37;71.09;99628.22;4994145;28;45182;-63
2021/12/05 04:13:39;;;;;;;;;1.25;0.00;;;;;5.37;72.03;99631.69;4996835;28;45323;-64
2021/12/05 04:16:06;;;;;;;;;0.00;0.00;;;;;5.37;71.80;99617.66;4992987;28;45493;-67
2021/12/05 04:18:33;;;;;;;;;0.25;0.00;;;;;5.31;71.44;99610.91;4991937;28;45386;-68
2021/12/05 04:20:59;;;;;;;;;0.00;0.00;;;;;5.33;71.95;99625.69;4972973;27;45386;-60
2021/12/05 04:23:26;;;;;;;;;0.00;0.00;;;;;5.31;71.39;99632.00;4984500;28;45262;-67
2021/12/05 04:25:52;;;;;;;;;0.25;0.25;;;;;5.25;71.43;99627.03;4993260;28;46073;-64
2021/12/05 04:28:20;;;;;;;;;0.00;0.00;;;;;5.31;70.37;99619.66;4993907;27;45417;-62
2021/12/05 04:30:46;;;;;;;;;0.00;0.00;;;;;5.29;70.93;99623.31;4994157;27;45348;-65
2021/12/05 04:33:12;;;;;;;;;0.75;0.00;;;;;5.29;71.06;99629.44;4993854;27;45508;-64
2021/12/05 04:35:38;;;;;;;;;0.00;0.00;;;;;5.32;71.31;99623.16;4977930;27;46146;-67
2021/12/05 04:38:04;;;;;;;;;0.00;0.00;;;;;5.26;71.15;99613.78;4993540;27;45323;-67
2021/12/05 04:40:29;;;;;;;;;0.00;0.00;;;;;5.23;70.99;99608.66;4996762;28;45374;-65
2021/12/05 04:42:55;;;;;;;;;0.00;0.00;;;;;5.16;70.48;99591.44;4992886;27;45375;-66
2021/12/05 04:45:25;;;;;;;;;0.00;0.00;;;;;5.20;70.48;99597.41;4993037;27;45280;-64
2021/12/05 04:47:51;;;;;;;;;0.50;0.00;;;;;5.23;71.07;99613.09;4993630;28;45414;-64
2021/12/05 04:50:17;;;;;;;;;0.00;0.00;;;;;5.16;70.48;99609.03;5002006;28;45295;-65
2021/12/05 04:52:43;;;;;;;;;1.00;0.00;;;;;5.12;70.93;99589.88;4990942;27;45742;-64
2021/12/05 04:55:10;;;;;;;;;0.00;0.00;;;;;5.09;71.36;99600.59;4970053;28;48251;-66
2021/12/05 04:57:36;;;;;;;;;0.00;0.00;;;;;5.07;71.21;99599.78;4997798;28;45551;-65
2021/12/05 05:00:05;;;;;;;;;0.00;0.00;;;;;5.11;71.29;99613.69;4996547;28;45416;-64
2021/12/05 05:02:31;;;;;;;;;0.00;0.00;;;;;5.13;71.43;99607.41;4993713;28;45403;-66
2021/12/05 05:04:56;;;;;;;;;0.00;0.00;;;;;5.13;71.21;99602.13;4993105;28;45856;-65
2021/12/05 05:07:27;;;;;;;;;0.00;0.00;;;;;4.99;70.85;99586.16;4981437;27;45372;-65
2021/12/05 05:10:03;;;;;;;;;0.00;0.00;;;;;5.04;71.63;99592.88;5017261;27;45431;-63
2021/12/05 05:12:29;;;;;;;;;0.00;0.00;;;;;5.12;71.12;99605.69;4972906;28;45394;-62
2021/12/05 05:14:55;;;;;;;;;0.00;0.00;;;;;5.11;71.06;99601.38;4988678;28;46021;-62
2021/12/05 05:17:21;;;;;;;;;0.00;0.00;;;;;5.06;71.71;99592.81;4992831;28;45414;-62
2021/12/05 05:19:53;;;;;;;;;0.00;0.00;;;;;5.13;71.43;99596.88;4971971;28;45442;-63
2021/12/05 05:39:08;;;;;;;;;1.00;0.00;;;;;5.23;71.58;99599.91;4996198;28;45308;-61
2021/12/05 05:51:38;;;;;;;;;0.00;0.00;;;;;5.57;71.12;99606.94;4994158;28;45693;-62
2021/12/05 05:54:03;;;;;;;;;0.00;0.00;;;;;5.56;71.69;99581.50;4977640;27;45587;-64
2021/12/05 05:56:30;;;;;;;;;0.25;0.00;;;;;5.63;71.75;99604.00;4975702;28;46150;-62
2021/12/05 05:59:03;;;;;;;;;0.00;0.00;;;;;5.59;71.65;99589.25;4991645;28;45252;-67
2021/12/05 06:01:54;;;;;;;;;0.00;0.00;;;;;5.55;71.79;99582.44;4978096;28;45208;-65
2021/12/05 06:04:18;;;;;;;;;0.00;0.00;;;;;5.47;72.26;99574.94;4994787;28;45446;-69
2021/12/05 06:06:43;;;;;;;;;2.00;0.00;;;;;5.57;71.80;99580.56;4995223;27;45674;-62
2021/12/05 06:09:09;;;;;;;;;0.00;0.00;;;;;5.54;71.66;99591.28;5058136;27;45552;-64
2021/12/05 06:11:35;;;;;;;;;0.50;0.00;;;;;5.57;70.92;99586.69;5003155;27;45473;-66
2021/12/05 06:14:01;;;;;;;;;0.00;0.00;;;;;5.51;71.59;99570.34;4994796;28;45504;-65
2021/12/05 06:16:26;;;;;;;;;0.00;0.00;;;;;5.45;71.56;99560.94;4994263;27;45492;-68
2021/12/05 06:18:52;;;;;;;;;0.00;0.00;;;;;5.56;71.50;99571.81;5006804;28;45516;-63
2021/12/05 06:21:18;;;;;;;;;0.00;0.00;;;;;5.51;71.99;99563.28;4974983;28;45468;-65
2021/12/05 06:23:45;;;;;;;;;1.00;0.00;;;;;5.59;71.48;99581.34;4972599;28;45248;-67
2021/12/05 06:26:19;;;;;;;;;0.00;0.00;;;;;5.62;71.26;99584.69;4973746;27;45467;-63
2021/12/05 06:28:46;;;;;;;;;0.00;0.00;;;;;5.46;71.25;99559.16;4972724;28;45425;-64
2021/12/05 06:31:48;;;;;;;;;0.00;0.00;;;;;5.66;71.05;99595.94;4980030;28;45514;-67
2021/12/05 06:47:04;;;;;;;;;0.00;0.00;;;;;5.64;71.58;99587.25;4993467;28;45755;-66
2021/12/05 06:49:33;;;;;;;;;1.00;0.00;;;;;5.56;71.50;99570.94;4994188;27;45367;-64
2021/12/05 06:51:58;;;;;;;;;0.00;0.00;;;;;5.66;71.50;99590.66;4993506;28;45402;-66
2021/12/05 06:54:24;;;;;;;;;0.00;0.00;;;;;5.64;71.36;99587.25;4994481;27;45613;-64
2021/12/05 06:56:50;;;;;;;;;0.00;0.00;;;;;5.67;71.47;99609.97;4994994;27;46038;-66
2021/12/05 06:59:16;;;;;;;;;0.00;0.00;;;;;5.68;72.97;99606.41;4980361;27;45340;-64
2021/12/05 07:01:42;;;;;;;;;1.00;1.00;;;;;5.67;73.31;99605.53;4972745;28;45527;-62
2021/12/05 07:04:29;;;;;;;;;0.00;0.00;;;;;5.58;73.38;99592.81;4961533;28;45660;-66
2021/12/05 07:06:52;;;;;;;;;0.50;0.00;;;;;5.66;73.91;99610.91;4994502;27;45645;-63
2021/12/05 07:09:18;;;;;;;;;0.75;0.00;;;;;5.60;73.39;99604.16;5084288;27;45417;-66
2021/12/05 07:14:34;;;;;;;;;0.00;0.00;;;;;5.55;73.39;99585.94;4981305;27;45295;-64
2021/12/05 07:17:07;;;;;;;;;0.00;0.00;;;;;5.33;73.91;99556.31;4975083;28;45485;-64
2021/12/05 07:22:20;;;;;;;;;0.00;0.00;;;;;5.43;74.64;99594.47;4975262;28;45372;-65
2021/12/05 07:24:53;;;;;;;;;0.00;0.00;;;;;5.56;75.00;99607.88;4996938;28;45453;-64
2021/12/05 07:40:44;;;;;;;;;0.00;0.00;;;;;5.44;74.71;99613.78;4991946;28;45572;-66
2021/12/05 07:43:12;;;;;;;;;0.00;0.00;;;;;5.47;74.49;99619.75;4982488;27;45549;-65
2021/12/05 07:45:44;;;;;;;;;0.00;0.00;;;;;5.49;74.34;99611.78;5003183;28;45641;-66
2021/12/05 07:48:15;;;;;;;;;1.00;0.00;;;;;5.53;75.03;99608.03;4993705;28;46295;-60
2021/12/05 07:50:53;;;;;;;;;1.50;0.00;;;;;5.50;74.41;99610.84;4995303;28;45626;-64
2021/12/05 07:53:27;;;;;;;;;0.00;0.00;;;;;5.46;74.42;99607.47;4995538;28;45672;-65
2021/12/05 07:55:57;;;;;;;;;2.00;0.00;;;;;5.52;74.55;99614.25;5009941;28;45468;-63
2021/12/05 07:59:37;;;;;;;;;0.00;0.00;;;;;5.45;73.83;99597.00;4993414;27;45570;-65
2021/12/05 08:14:54;;;;;;;;;2.00;0.75;;;;;5.50;75.39;99601.16;4993531;27;45502;-63
2021/12/05 08:17:21;;;;;;;;;0.00;0.00;;;;;5.66;76.62;99627.59;4972786;28;45446;-63
2021/12/05 08:19:47;;;;;;;;;0.00;0.00;;;;;5.62;75.91;99618.13;4987183;28;46183;-68
2021/12/05 08:22:13;;;;;;;;;0.50;0.50;;;;;5.70;75.96;99620.34;5008642;27;45447;-64
2021/12/05 08:24:41;;;;;;;;;0.25;0.25;;;;;5.68;76.12;99622.22;5051277;27;45434;-66
2021/12/05 08:27:09;;;;;;;;;1.00;1.00;;;;;5.63;76.25;99618.03;5037807;27;45504;-66
2021/12/05 08:29:47;;;;;;;;;2.00;0.00;;;;;5.65;75.80;99610.06;4991760;27;46055;-65
2021/12/05 08:33:10;;;;;;;;;3.00;1.00;;;;;5.70;75.56;99626.47;5016689;27;47071;-63
2021/12/05 08:45:51;;;;;;;;;0.00;0.00;;;;;5.82;75.96;99644.31;4993360;28;45432;-64
2021/12/05 09:21:56;;;;;;;;;3.00;1.00;;;;;6.31;74.45;99654.97;4994150;28;45558;-67
2021/12/05 09:29:35;;;;;;;;;1.75;1.50;;;;;6.40;74.03;99659.78;4974357;28;45615;-64
2021/12/05 10:10:21;;;;;;;;;4.50;1.00;;;;;7.09;72.55;99661.25;4994085;28;45334;-65
2021/12/05 10:13:03;;;;;;;;;2.00;2.00;;;;;7.16;72.51;99672.31;4988972;28;45462;-66
2021/12/05 10:37:47;;;;;;;;;0.75;0.75;;;;;7.50;72.22;99663.31;4995873;28;45366;-63
2021/12/05 10:40:19;;;;;;;;;4.00;2.00;;;;;7.51;71.57;99657.09;4992931;27;45598;-64
2021/12/05 10:42:52;;;;;;;;;1.00;1.00;;;;;7.54;72.20;99657.75;5004467;27;45282;-67
2021/12/05 10:45:45;;;;;;;;;1.00;1.00;;;;;7.56;71.87;99655.91;4968125;28;45390;-61
2021/12/05 10:48:27;;;;;;;;;1.00;1.00;;;;;7.57;71.30;99652.31;5015470;28;45440;-62
2021/12/05 10:51:19;;;;;;;;;4.50;2.00;;;;;7.55;71.78;99650.66;5010963;28;45530;-64
2021/12/05 10:53:51;;;;;;;;;1.00;1.00;;;;;7.52;71.22;99649.06;4979975;28;46603;-65
2021/12/05 10:56:19;;;;;;;;;2.00;1.00;;;;;7.50;71.68;99645.66;4979437;27;45463;-60
2021/12/05 10:59:11;;;;;;;;;4.75;1.75;;;;;7.53;71.64;99649.91;4988615;28;45413;-60
2021/12/05 11:01:47;;;;;;;;;1.00;1.00;;;;;7.53;72.02;99645.47;4993377;27;45555;-64
2021/12/05 11:04:24;;;;;;;;;1.00;1.00;;;;;7.54;71.39;99641.03;4995723;28;45264;-64
2021/12/05 11:06:52;;;;;;;;;1.25;1.25;;;;;7.52;71.76;99642.91;4995536;27;45251;-56
2021/12/05 11:09:22;;;;;;;;;1.00;1.00;;;;;7.60;71.92;99641.53;4995725;27;45553;-63
2021/12/05 11:11:54;;;;;;;;;1.00;1.00;;;;;7.63;71.58;99646.63;4995217;27;45359;-59
2021/12/05 11:14:25;;;;;;;;;2.25;1.00;;;;;7.58;71.58;99632.84;4961280;28;45392;-61
2021/12/05 11:17:14;;;;;;;;;1.00;1.00;;;;;7.53;70.99;99634.88;4995101;28;45406;-60
2021/12/05 11:20:18;;;;;;;;;1.00;1.00;;;;;7.50;71.82;99635.06;4993728;27;45537;-61
2021/12/05 11:22:47;;;;;;;;;2.00;2.00;;;;;7.47;71.72;99643.19;5006482;27;45592;-59
2021/12/05 11:25:22;;;;;;;;;2.00;2.00;;;;;7.50;71.28;99640.34;5052288;27;45311;-61
2021/12/05 11:28:01;;;;;;;;;1.00;1.00;;;;;7.47;71.93;99643.19;4982973;28;45569;-63
2021/12/05 11:30:33;;;;;;;;;2.00;1.00;;;;;7.40;71.96;99647.13;5010208;27;45233;-61
2021/12/05 11:33:07;;;;;;;;;1.00;1.00;;;;;7.39;72.10;99650.72;5003440;27;46382;-62
2021/12/05 11:35:39;;;;;;;;;0.75;0.00;;;;;7.37;72.56;99640.22;4976895;28;45645;-59
2021/12/05 11:38:22;;;;;;;;;2.00;2.00;;;;;7.36;72.89;99653.53;4977075;28;45505;-65
2021/12/05 11:41:05;;;;;;;;;1.00;1.00;;;;;7.23;72.84;99650.75;4975486;28;45776;-63
2021/12/05 11:43:32;;;;;;;;;1.00;1.00;;;;;7.28;74.10;99666.34;5027561;27;46230;-63
2021/12/05 11:46:03;;;;;;;;;2.75;1.00;;;;;7.24;74.00;99670.09;5059518;27;45551;-60
2021/12/05 11:48:39;;;;;;;;;3.50;1.25;;;;;7.16;75.32;99673.22;5010332;27;45394;-64
2021/12/05 11:51:17;;;;;;;;;2.50;2.00;;;;;6.99;76.29;99687.34;5031785;27;45457;-64
2021/12/05 11:53:47;;;;;;;;;1.00;1.00;;;;;6.81;76.29;99683.09;5085901;27;45907;-61
2021/12/05 11:56:32;;;;;;;;;4.00;1.00;;;;;6.72;78.57;99688.88;5008335;28;45382;-56
2021/12/05 11:59:24;;;;;;;;;4.75;2.00;;;;;6.39;79.38;99695.06;5000482;27;45390;-60
2021/12/05 12:01:55;;;;;;;;;2.00;2.00;;;;;6.36;81.23;99708.41;4990730;28;45484;-59
2021/12/05 12:04:26;;;;;;;;;6.00;4.50;;;;;6.42;81.45;99702.81;4993972;28;45865;-60
2021/12/05 12:07:34;;;;;;;;;2.00;2.00;;;;;6.44;79.95;99690.38;5011563;27;45394;-61
2021/12/05 12:10:17;;;;;;;;;5.00;2.00;;;;;6.54;78.36;99695.16;5002618;28;45501;-65
2021/12/05 12:12:47;;;;;;;;;0.00;0.00;;;;;6.47;76.89;99700.75;4977377;28;45462;-63
2021/12/05 12:15:15;;;;;;;;;1.00;1.00;;;;;6.34;76.92;99696.22;4973046;28;48041;-60
2021/12/05 12:17:41;;;;;;;;;0.50;0.50;;;;;6.33;78.10;99699.78;4975539;28;45288;-61
2021/12/05 12:20:11;;;;;;;;;1.00;1.00;;;;;6.29;76.47;99691.19;4959495;28;45523;-57
2021/12/05 12:22:38;;;;;;;;;4.75;1.00;;;;;6.32;76.98;99703.38;4978904;27;45296;-69
2021/12/05 12:25:14;;;;;;;;;2.00;0.00;;;;;6.29;78.14;99692.97;4987005;28;46522;-63
2021/12/05 12:27:44;;;;;;;;;1.00;1.00;;;;;6.33;76.50;99703.28;4994271;28;45374;-61
2021/12/05 12:30:11;;;;;;;;;1.00;1.00;;;;;6.30;76.70;99706.09;5011508;27;45454;-65
2021/12/05 12:32:42;;;;;;;;;1.00;1.00;;;;;6.36;76.36;99712.81;5052047;27;45551;-59
2021/12/05 12:35:13;;;;;;;;;4.00;1.75;;;;;6.32;75.90;99717.41;4977154;28;47484;-64
2021/12/05 12:37:57;;;;;;;;;2.50;1.00;;;;;6.35;75.53;99709.34;4995911;27;45589;-61
2021/12/05 12:40:37;;;;;;;;;1.00;1.00;;;;;6.36;75.12;99718.09;4994857;27;45481;-60
2021/12/05 12:43:05;;;;;;;;;1.25;1.25;;;;;6.36;75.21;99715.47;4975795;28;45543;-65
2021/12/05 12:45:40;;;;;;;;;1.00;1.00;;;;;6.34;74.81;99719.97;4975239;28;46330;-62
2021/12/05 12:48:11;;;;;;;;;2.00;2.00;;;;;6.34;74.67;99718.19;4996560;27;45282;-65
2021/12/05 12:50:50;;;;;;;;;1.00;1.00;;;;;6.29;74.71;99716.75;5034094;27;45418;-60
2021/12/05 12:53:37;;;;;;;;;2.00;2.00;;;;;6.35;75.77;99717.25;4998915;27;45520;-59
2021/12/05 12:56:08;;;;;;;;;1.00;1.00;;;;;6.35;74.91;99717.25;5003470;28;45432;-60
2021/12/05 12:58:46;;;;;;;;;4.00;4.00;;;;;6.32;74.67;99727.97;4996095;27;45473;-61
2021/12/05 13:01:49;;;;;;;;;4.00;3.50;;;;;6.35;74.49;99725.19;5002535;27;45358;-61
2021/12/05 13:12:33;;;;;;;;;5.00;2.50;;;;;6.45;73.96;99718.47;4992773;28;45367;-62
2021/12/05 13:15:10;;;;;;;;;2.00;1.00;;;;;6.50;74.20;99729.66;4992473;28;45433;-63
2021/12/05 13:17:47;;;;;;;;;3.00;2.00;;;;;6.53;74.58;99741.00;4992892;28;45415;-63
2021/12/05 13:20:17;;;;;;;;;4.00;4.00;;;;;6.48;74.83;99736.81;4974784;27;46817;-62
2021/12/05 13:23:07;;;;;;;;;5.00;5.00;;;;;6.60;75.06;99745.88;4973766;28;45399;-63
2021/12/05 13:25:54;;;;;;;;;6.75;3.00;;;;;6.64;74.47;99726.28;4973670;28;45422;-62
2021/12/05 13:28:33;;;;;;;;;4.00;4.00;;;;;6.60;74.32;99710.66;4973388;27;45927;-64
2021/12/05 13:31:20;;;;;;;;;3.00;3.00;;;;;6.84;74.37;99741.06;5035899;27;45709;-62
2021/12/05 13:33:46;;;;;;;;;4.00;4.00;;;;;6.80;74.13;99735.09;5096164;27;45318;-63
2021/12/05 13:36:30;;;;;;;;;5.00;4.00;;;;;6.87;74.33;99740.88;5096385;27;45587;-62
2021/12/05 13:38:55;;;;;;;;;2.00;2.00;;;;;6.82;73.33;99744.72;5003799;28;45522;-64
2021/12/05 13:41:21;;;;;;;;;3.50;2.50;;;;;6.86;74.36;99746.25;4971969;28;45655;-62
2021/12/05 13:44:01;;;;;;;;;8.50;4.75;;;;;6.89;73.97;99730.22;4972364;28;45380;-64
2021/12/05 13:46:32;;;;;;;;;4.25;4.25;;;;;7.05;73.75;99747.81;4959351;28;45413;-63
2021/12/05 13:48:59;;;;;;;;;4.00;4.00;;;;;7.06;74.03;99740.75;4974109;28;45652;-62
2021/12/05 13:51:26;;;;;;;;;5.00;5.00;;;;;7.04;74.31;99735.56;4958684;28;45471;-62
2021/12/05 13:53:55;;;;;;;;;5.00;5.00;;;;;7.21;73.71;99755.75;4976523;28;45345;-62
2021/12/05 13:56:26;;;;;;;;;5.00;3.50;;;;;7.27;73.91;99765.13;4975623;27;45651;-64
2021/12/05 13:58:56;;;;;;;;;6.00;5.00;;;;;7.21;74.11;99763.69;4958698;28;45377;-63
2021/12/05 14:01:24;;;;;;;;;4.50;4.50;;;;;7.28;73.58;99766.84;4976133;28;45280;-63
2021/12/05 14:03:59;;;;;;;;;8.75;7.50;;;;;7.27;74.31;99760.69;4976343;28;45220;-63
2021/12/05 14:06:27;;;;;;;;;4.25;4.25;;;;;7.36;73.50;99767.28;4959279;28;45711;-64
2021/12/05 14:08:56;;;;;;;;;1.50;1.50;;;;;7.28;72.07;99764.19;4976279;28;45477;-61
2021/12/05 14:11:26;;;;;;;;;5.00;4.00;;;;;7.24;72.83;99771.44;4983858;27;45322;-63
2021/12/05 14:13:52;;;;;;;;;4.00;4.00;;;;;7.30;73.72;99772.91;4995897;28;45420;-61
2021/12/05 14:16:19;;;;;;;;;4.75;4.75;;;;;7.32;73.43;99776.34;4995918;27;45372;-62
2021/12/05 14:18:44;;;;;;;;;4.00;4.00;;;;;7.36;73.87;99776.06;4978453;28;45996;-64
2021/12/05 14:21:15;;;;;;;;;4.00;4.00;;;;;7.38;73.25;99768.03;4977913;28;45733;-63
2021/12/05 14:23:51;;;;;;;;;12.75;5.75;;;;;7.36;73.37;99775.22;4996015;28;45342;-64
2021/12/05 14:26:19;;;;;;;;;11.25;9.75;;;;;7.38;73.71;99783.91;4994065;27;45350;-64
2021/12/05 14:28:56;;;;;;;;;5.75;5.75;;;;;7.42;74.13;99792.53;4975957;28;46178;-61
2021/12/05 14:31:31;;;;;;;;;9.00;7.00;;;;;7.37;73.06;99787.50;5057877;27;45444;-64
2021/12/05 14:33:57;;;;;;;;;5.25;5.25;;;;;7.38;73.91;99790.06;5099387;27;45433;-64
2021/12/05 14:36:36;;;;;;;;;6.50;5.25;;;;;7.36;74.03;99788.44;5080971;27;45602;-61
2021/12/05 14:39:27;;;;;;;;;5.75;5.25;;;;;7.44;73.84;99802.09;5098793;27;45705;-63
2021/12/05 14:41:57;;;;;;;;;4.00;4.00;;;;;7.40;73.77;99804.03;5098867;27;45552;-63
2021/12/05 14:44:23;;;;;;;;;6.00;4.75;;;;;7.40;73.09;99798.75;5005467;27;45386;-62
2021/12/05 14:46:56;;;;;;;;;7.00;5.00;;;;;7.45;73.57;99816.19;4975623;27;45638;-62
2021/12/05 14:49:25;;;;;;;;;5.00;5.00;;;;;7.39;73.45;99796.19;4958472;28;48459;-63
2021/12/05 14:51:52;;;;;;;;;8.00;6.00;;;;;7.36;73.51;99796.38;4975685;28;45356;-62
2021/12/05 14:54:24;;;;;;;;;8.50;4.75;;;;;7.43;73.89;99816.28;4958373;28;45347;-63
2021/12/05 14:56:49;;;;;;;;;5.75;5.75;;;;;7.32;74.46;99816.84;4975602;28;45377;-62
2021/12/05 14:59:16;;;;;;;;;8.50;6.50;;;;;7.40;74.81;99837.59;4975800;28;45382;-62
2021/12/05 15:01:46;;;;;;;;;4.50;4.00;;;;;7.19;73.62;99809.69;4974880;27;45460;-63
2021/12/05 15:04:17;;;;;;;;;8.00;4.50;;;;;7.27;74.28;99849.75;4975949;28;45246;-62
2021/12/05 15:06:44;;;;;;;;;5.00;3.00;;;;;7.20;73.91;99838.69;4976051;28;45493;-62
2021/12/05 15:09:18;;;;;;;;;6.00;4.75;;;;;7.30;75.03;99850.47;4975532;28;46073;-63
2021/12/05 15:11:51;;;;;;;;;4.25;4.25;;;;;7.31;74.47;99852.19;4975760;28;45441;-63
2021/12/05 15:14:18;;;;;;;;;5.25;4.25;;;;;7.37;75.26;99869.50;4975605;28;45411;-66
2021/12/05 15:17:06;;;;;;;;;5.00;5.00;;;;;7.33;75.51;99873.25;4966992;28;45317;-66
2021/12/05 15:19:31;;;;;;;;;6.50;5.00;;;;;7.18;76.77;99860.88;4975651;28;46217;-63
2021/12/05 15:21:58;;;;;;;;;7.00;5.00;;;;;7.16;77.22;99871.53;4975574;28;45462;-63
2021/12/05 15:24:27;;;;;;;;;7.00;5.25;;;;;7.21;78.45;99873.91;4975623;28;45349;-63
2021/12/05 15:26:56;;;;;;;;;8.00;5.50;;;;;7.28;77.60;99889.34;4975424;28;45296;-64
2021/12/05 15:29:23;;;;;;;;;9.25;8.00;;;;;7.28;78.19;99885.84;4975064;28;46034;-64
2021/12/05 15:31:49;;;;;;;;;1.00;1.00;;;;;7.30;77.44;99886.66;5043461;27;45381;-64
2021/12/05 15:34:28;;;;;;;;;10.00;6.00;;;;;7.34;77.39;99893.47;4957784;28;45379;-63
2021/12/05 15:36:55;;;;;;;;;5.50;5.50;;;;;7.21;76.59;99895.94;4974886;27;45490;-65
2021/12/05 15:39:25;;;;;;;;;5.75;5.75;;;;;7.19;76.08;99907.53;4975395;28;46493;-67
2021/12/05 15:41:52;;;;;;;;;11.00;8.00;;;;;7.19;77.32;99905.72;4990016;27;45372;-68
2021/12/05 15:44:34;;;;;;;;;8.25;7.00;;;;;7.21;76.94;99911.78;4995213;27;45370;-63
2021/12/05 15:47:08;;;;;;;;;6.50;6.00;;;;;7.24;76.18;99918.69;4994968;28;45433;-62
2021/12/05 15:49:45;;;;;;;;;4.00;4.00;;;;;7.12;76.10;99914.06;4994368;28;45365;-64
2021/12/05 15:52:11;;;;;;;;;8.00;4.75;;;;;7.10;75.79;99922.06;4994448;27;45732;-63
2021/12/05 15:54:38;;;;;;;;;7.50;5.75;;;;;7.02;75.80;99922.47;4994670;27;45323;-64
2021/12/05 15:57:15;;;;;;;;;4.50;4.50;;;;;7.13;76.00;99947.50;5024143;27;45421;-62
2021/12/05 15:59:46;;;;;;;;;6.00;3.00;;;;;6.98;75.94;99931.50;5059511;28;46485;-62
2021/12/05 16:02:14;;;;;;;;;9.00;5.00;;;;;7.09;76.13;99947.66;5077121;27;45400;-65
2021/12/05 16:04:40;;;;;;;;;7.50;7.00;;;;;6.93;75.75;99936.19;5058195;28;45440;-65
2021/12/05 16:07:10;;;;;;;;;6.00;4.75;;;;;7.03;75.48;99958.56;4955779;28;45555;-63
2021/12/05 16:09:38;;;;;;;;;5.50;4.25;;;;;7.02;75.70;99967.41;4962522;28;45617;-62
2021/12/05 16:12:06;;;;;;;;;5.50;5.50;;;;;7.05;75.89;99980.50;4958708;27;45496;-66
2021/12/05 16:14:36;;;;;;;;;2.75;0.75;;;;;7.01;75.05;99984.19;4975263;28;45498;-65
2021/12/05 16:17:03;;;;;;;;;6.25;5.00;;;;;6.91;75.35;99975.06;4977163;28;45577;-67
2021/12/05 16:19:31;;;;;;;;;4.50;4.00;;;;;6.98;75.72;99984.38;4992126;28;46265;-69
2021/12/05 16:21:57;;;;;;;;;3.50;3.50;;;;;7.01;74.82;99997.41;4992151;28;45299;-62
2021/12/05 16:24:22;;;;;;;;;4.75;4.75;;;;;6.89;75.23;99976.91;4980290;28;45268;-62
2021/12/05 16:26:50;;;;;;;;;2.00;2.00;;;;;6.96;75.57;100001.25;4981853;28;45455;-62
2021/12/05 16:29:19;;;;;;;;;8.00;8.00;;;;;6.95;75.54;100016.25;5050609;27;46925;-64
2021/12/05 16:31:57;;;;;;;;;7.50;7.50;;;;;6.96;75.39;100012.69;5024427;28;45685;-61
2021/12/05 16:34:26;;;;;;;;;5.25;4.75;;;;;7.05;75.62;100014.88;5037337;27;45285;-65
2021/12/05 16:36:58;;;;;;;;;7.00;5.25;;;;;7.07;74.24;100015.63;5079904;27;45516;-63
2021/12/05 16:39:35;;;;;;;;;8.50;7.50;;;;;7.09;74.75;100016.41;4988972;28;46886;-62
2021/12/05 16:42:09;;;;;;;;;4.00;4.00;;;;;6.97;74.62;99995.88;4993545;28;45366;-66
2021/12/05 16:44:37;;;;;;;;;4.50;4.50;;;;;7.08;74.48;100025.28;4992012;27;45525;-66
2021/12/05 16:47:13;;;;;;;;;8.00;5.75;;;;;7.07;74.23;100039.44;5019799;28;45826;-60
2021/12/05 16:49:41;;;;;;;;;4.75;4.00;;;;;7.04;74.61;100036.09;5004757;28;45248;-63
2021/12/05 16:52:20;;;;;;;;;6.00;6.00;;;;;7.10;74.64;100028.69;5007382;27;45323;-62
2021/12/05 16:54:57;;;;;;;;;6.00;6.00;;;;;7.21;74.59;100035.22;4993777;28;45366;-57
2021/12/05 16:57:40;;;;;;;;;8.00;5.00;;;;;7.23;74.49;100039.50;4994275;27;45388;-53
2021/12/05 17:00:13;;;;;;;;;8.50;7.00;;;;;7.27;75.43;100050.78;5014720;27;46244;-58
2021/12/05 17:02:53;;;;;;;;;10.00;8.25;;;;;7.35;74.49;100033.59;4972405;28;45402;-56
2021/12/05 17:05:32;;;;;;;;;9.50;9.50;;;;;7.38;75.01;100049.28;4972604;28;45256;-59
2021/12/05 17:08:13;;;;;;;;;11.50;7.00;;;;;7.37;74.12;100052.88;4983006;28;45186;-55
2021/12/05 17:10:54;;;;;;;;;8.25;7.75;;;;;7.37;74.70;100036.16;4975859;28;46208;-56
2021/12/05 17:13:33;;;;;;;;;8.75;8.75;;;;;7.29;73.85;100055.06;4993792;28;45469;-60
2021/12/05 17:16:07;;;;;;;;;8.00;8.00;;;;;7.28;73.84;100069.22;5010794;28;45334;-51
2021/12/05 17:19:08;;;;;;;;;9.00;9.00;;;;;7.33;74.77;100061.06;4962308;28;45330;-58
2021/12/05 17:21:38;;;;;;;;;19.75;16.75;;;;;7.43;74.03;100062.31;4964942;28;46335;-54
2021/12/05 17:24:32;;;;;;;;;13.00;13.00;;;;;7.46;74.07;100062.13;4955765;28;45272;-56
2021/12/05 17:27:04;;;;;;;;;18.25;16.00;;;;;7.52;74.06;100071.53;4974598;28;45403;-59